createdAt,value
2022-12-31T00:01:47.137Z,2.40
2022-12-31T00:04:13.797Z,2.08
2022-12-31T00:06:40.413Z,1.42
2022-12-31T00:09:08.736Z,1.40
2022-12-31T00:11:37.138Z,1.42
2022-12-31T00:14:04.103Z,2.03
2022-12-31T00:16:36.460Z,2.20
2022-12-31T00:19:04.304Z,1.88
2022-12-31T00:21:32.661Z,2.30
2022-12-31T00:23:59.901Z,2.78
2022-12-31T00:26:29.519Z,1.10
2022-12-31T00:28:57.329Z,1.27
2022-12-31T00:31:36.170Z,2.97
2022-12-31T00:34:03.531Z,2.63
2022-12-31T00:36:33.501Z,2.97
2022-12-31T00:39:01.794Z,3.28
2022-12-31T00:41:29.404Z,1.98
2022-12-31T00:43:56.354Z,1.13
2022-12-31T00:46:23.717Z,1.60
2022-12-31T00:48:50.707Z,4.18
2022-12-31T00:51:21.377Z,4.50
2022-12-31T00:53:48.365Z,5.63
2022-12-31T00:56:18.037Z,2.45
2022-12-31T00:58:45.396Z,5.72
2022-12-31T01:01:19.194Z,2.88
2022-12-31T01:03:47.419Z,2.67
2022-12-31T01:06:14.091Z,4.78
2022-12-31T01:08:40.998Z,3.03
2022-12-31T01:11:19.644Z,3.33
2022-12-31T01:13:47.305Z,2.88
2022-12-31T01:16:15.145Z,3.55
2022-12-31T01:18:42.029Z,4.30
2022-12-31T01:21:14.663Z,1.65
2022-12-31T01:23:41.821Z,1.45
2022-12-31T01:26:10.776Z,0.95
2022-12-31T01:28:37.404Z,2.17
2022-12-31T01:31:09.320Z,2.35
2022-12-31T01:33:36.977Z,1.25
2022-12-31T01:36:06.025Z,1.13
2022-12-31T01:38:34.508Z,2.33
2022-12-31T01:41:01.879Z,1.45
2022-12-31T01:43:54.379Z,3.88
2022-12-31T01:46:24.916Z,1.63
2022-12-31T01:48:54.472Z,1.20
2022-12-31T01:51:21.700Z,4.10
2022-12-31T01:53:49.685Z,4.60
2022-12-31T01:56:16.779Z,1.98
2022-12-31T01:58:47.990Z,4.28
2022-12-31T02:01:29.122Z,9.73
2022-12-31T02:03:57.283Z,1.95
2022-12-31T02:06:37.559Z,0.70
2022-12-31T02:09:04.286Z,5.60
2022-12-31T02:11:36.436Z,2.38
2022-12-31T02:14:07.736Z,1.08
2022-12-31T02:16:52.425Z,2.95
2022-12-31T02:19:44.046Z,2.70
2022-12-31T02:22:33.478Z,9.88
2022-12-31T02:25:00.186Z,4.38
2022-12-31T02:27:58.970Z,3.78
2022-12-31T02:30:29.584Z,4.93
2022-12-31T02:33:15.642Z,4.82
2022-12-31T02:35:48.562Z,1.92
2022-12-31T02:38:26.872Z,1.35
2022-12-31T02:40:54.849Z,0.73
2022-12-31T02:43:21.469Z,3.15
2022-12-31T02:45:56.492Z,1.35
2022-12-31T02:48:23.049Z,0.98
2022-12-31T02:51:18.255Z,2.88
2022-12-31T02:54:29.268Z,2.28
2022-12-31T02:57:33.761Z,1.65
2022-12-31T03:00:26.132Z,2.58
2022-12-31T03:02:53.996Z,5.13
2022-12-31T03:05:25.205Z,2.90
2022-12-31T03:07:51.852Z,3.03
2022-12-31T03:10:18.724Z,7.65
2022-12-31T03:12:48.721Z,1.33
2022-12-31T03:15:30.033Z,4.15
2022-12-31T03:18:07.723Z,3.05
2022-12-31T03:21:06.871Z,2.33
2022-12-31T03:23:50.184Z,2.10
2022-12-31T03:26:17.099Z,6.97
2022-12-31T03:28:47.864Z,3.08
2022-12-31T03:31:16.356Z,2.83
2022-12-31T03:33:43.126Z,6.25
2022-12-31T03:36:14.273Z,2.25
2022-12-31T03:38:41.403Z,2.38
2022-12-31T03:41:10.859Z,2.67
2022-12-31T03:43:37.510Z,3.97
2022-12-31T03:46:04.223Z,3.60
2022-12-31T03:48:30.917Z,1.90
2022-12-31T03:50:59.576Z,3.88
2022-12-31T03:53:26.261Z,3.20
2022-12-31T03:55:54.105Z,1.73
2022-12-31T03:58:21.460Z,3.08
2022-12-31T04:00:48.178Z,3.55
2022-12-31T04:03:14.943Z,9.05
2022-12-31T04:05:41.612Z,4.57
2022-12-31T04:08:08.388Z,3.53
2022-12-31T04:10:35.243Z,9.18
2022-12-31T04:13:04.628Z,4.75
2022-12-31T04:15:31.916Z,5.45
2022-12-31T04:17:58.792Z,3.63
2022-12-31T04:20:25.659Z,5.25
2022-12-31T04:22:53.562Z,4.78
2022-12-31T04:25:20.333Z,3.90
2022-12-31T04:27:47.140Z,4.22
2022-12-31T04:30:14.111Z,1.25
2022-12-31T04:32:41.093Z,1.40
2022-12-31T04:35:08.598Z,1.00
2022-12-31T04:37:35.322Z,1.15
2022-12-31T04:40:06.180Z,1.40
2022-12-31T04:42:34.222Z,4.43
2022-12-31T04:45:00.927Z,3.90
2022-12-31T04:47:27.673Z,4.40
2022-12-31T04:49:54.267Z,1.92
2022-12-31T04:52:21.553Z,1.77
2022-12-31T04:54:48.152Z,3.33
2022-12-31T04:57:14.801Z,3.03
2022-12-31T04:59:41.498Z,2.10
2022-12-31T05:02:08.406Z,1.45
2022-12-31T05:04:35.177Z,1.40
2022-12-31T05:07:02.016Z,1.60
2022-12-31T05:09:28.787Z,1.13
2022-12-31T05:11:55.576Z,1.95
2022-12-31T05:14:22.553Z,2.08
2022-12-31T05:16:49.497Z,2.30
2022-12-31T05:19:16.301Z,1.40
2022-12-31T05:21:43.097Z,4.55
2022-12-31T05:24:09.723Z,1.73
2022-12-31T05:26:36.382Z,2.42
2022-12-31T05:29:03.040Z,4.25
2022-12-31T05:31:29.660Z,2.97
2022-12-31T05:33:56.636Z,3.80
2022-12-31T05:36:23.295Z,3.72
2022-12-31T05:38:49.889Z,5.88
2022-12-31T05:41:16.543Z,4.38
2022-12-31T05:43:43.188Z,3.22
2022-12-31T05:46:09.824Z,2.05
2022-12-31T05:48:36.535Z,4.10
2022-12-31T05:51:03.272Z,6.50
2022-12-31T05:53:30.016Z,8.27
2022-12-31T05:55:56.635Z,9.82
2022-12-31T05:58:23.345Z,7.57
2022-12-31T06:00:51.639Z,6.40
2022-12-31T06:03:18.410Z,5.78
2022-12-31T06:05:45.330Z,7.45
2022-12-31T06:08:12.636Z,8.52
2022-12-31T06:10:40.186Z,7.32
2022-12-31T06:13:07.724Z,5.75
2022-12-31T06:15:38.105Z,3.75
2022-12-31T06:18:04.798Z,5.60
2022-12-31T06:20:31.494Z,6.65
2022-12-31T06:22:58.220Z,5.15
2022-12-31T06:25:24.852Z,1.90
2022-12-31T06:27:51.522Z,0.98
2022-12-31T06:30:18.628Z,1.75
2022-12-31T06:32:45.484Z,0.98
2022-12-31T06:35:12.217Z,0.73
2022-12-31T06:37:38.896Z,1.58
2022-12-31T06:40:06.327Z,1.05
2022-12-31T06:42:33.044Z,1.40
2022-12-31T06:44:59.723Z,1.50
2022-12-31T06:47:26.733Z,0.60
2022-12-31T06:49:53.387Z,3.10
2022-12-31T06:52:20.513Z,0.88
2022-12-31T06:54:47.904Z,0.65
2022-12-31T06:57:15.155Z,0.88
2022-12-31T06:59:42.117Z,2.60
2022-12-31T07:02:27.299Z,0.80
2022-12-31T07:05:13.304Z,1.73
2022-12-31T07:08:03.069Z,1.10
2022-12-31T07:10:57.168Z,1.25
2022-12-31T07:13:33.021Z,2.30
2022-12-31T07:16:28.639Z,2.92
2022-12-31T07:19:17.532Z,3.47
2022-12-31T07:21:44.755Z,2.65
2022-12-31T07:24:12.500Z,3.15
2022-12-31T07:27:07.181Z,0.95
2022-12-31T07:29:46.122Z,1.53
2022-12-31T07:32:33.988Z,0.63
2022-12-31T07:35:34.550Z,1.30
2022-12-31T07:38:12.414Z,1.17
2022-12-31T07:41:09.402Z,0.57
2022-12-31T07:43:48.632Z,1.05
2022-12-31T07:46:30.317Z,3.00
2022-12-31T07:48:57.630Z,0.73
2022-12-31T07:51:24.649Z,0.40
2022-12-31T07:53:51.516Z,5.57
2022-12-31T07:56:18.290Z,0.77
2022-12-31T07:59:08.031Z,1.52
2022-12-31T08:02:06.973Z,2.20
2022-12-31T08:05:01.631Z,0.70
2022-12-31T08:08:09.449Z,0.60
2022-12-31T08:10:39.331Z,2.15
2022-12-31T08:13:10.501Z,2.42
2022-12-31T08:15:39.561Z,0.85
2022-12-31T08:18:07.328Z,0.80
2022-12-31T08:20:42.468Z,0.55
2022-12-31T08:23:52.880Z,1.77
2022-12-31T08:26:37.651Z,2.70
2022-12-31T08:29:25.767Z,3.58
2022-12-31T08:32:07.036Z,1.00
2022-12-31T08:34:45.528Z,2.50
2022-12-31T08:37:42.850Z,3.03
2022-12-31T08:40:15.592Z,1.88
2022-12-31T08:43:19.618Z,1.95
2022-12-31T08:45:52.423Z,4.03
2022-12-31T08:48:33.013Z,2.67
2022-12-31T08:50:59.871Z,1.92
2022-12-31T08:53:26.874Z,3.22
2022-12-31T08:56:05.444Z,7.13
2022-12-31T08:58:49.560Z,3.67
2022-12-31T09:01:21.716Z,2.67
2022-12-31T09:03:57.320Z,0.90
2022-12-31T09:06:34.093Z,3.80
2022-12-31T09:09:16.687Z,3.05
2022-12-31T09:11:51.338Z,4.05
2022-12-31T09:14:44.410Z,2.88
2022-12-31T09:17:25.877Z,1.17
2022-12-31T09:19:52.930Z,5.88
2022-12-31T09:22:19.820Z,2.58
2022-12-31T09:24:46.770Z,1.33
2022-12-31T09:27:23.875Z,3.17
2022-12-31T09:30:08.337Z,2.10
2022-12-31T09:33:11.825Z,1.42
2022-12-31T09:35:57.830Z,2.60
2022-12-31T09:38:55.813Z,5.05
2022-12-31T09:41:52.228Z,3.63
2022-12-31T09:45:04.302Z,3.15
2022-12-31T09:47:53.867Z,1.58
2022-12-31T09:50:43.506Z,3.47
2022-12-31T09:53:46.805Z,3.58
2022-12-31T09:56:20.411Z,5.63
2022-12-31T09:58:56.435Z,5.30
2022-12-31T10:01:48.011Z,2.58
2022-12-31T10:04:56.278Z,2.20
2022-12-31T10:07:52.451Z,5.15
2022-12-31T10:10:44.837Z,2.20
2022-12-31T10:13:42.284Z,4.82
2022-12-31T10:16:31.611Z,0.80
2022-12-31T10:19:31.097Z,2.30
2022-12-31T10:22:36.234Z,1.23
2022-12-31T10:25:21.705Z,5.77
2022-12-31T10:28:37.815Z,2.15
2022-12-31T10:31:26.191Z,1.20
2022-12-31T10:34:13.438Z,1.25
2022-12-31T10:37:03.796Z,2.08
2022-12-31T10:39:39.492Z,3.88
2022-12-31T10:42:37.366Z,4.82
2022-12-31T10:45:30.353Z,5.97
2022-12-31T10:48:15.252Z,5.10
2022-12-31T10:51:20.722Z,5.10
2022-12-31T10:54:06.204Z,3.67
2022-12-31T10:56:41.690Z,7.03
2022-12-31T10:59:30.418Z,2.67
2022-12-31T11:02:06.672Z,5.47
2022-12-31T11:05:24.100Z,4.40
2022-12-31T11:08:16.807Z,5.30
2022-12-31T11:10:52.351Z,3.92
2022-12-31T11:13:33.697Z,1.25
2022-12-31T11:16:19.161Z,2.17
2022-12-31T11:19:19.216Z,5.00
2022-12-31T11:22:12.919Z,3.15
2022-12-31T11:25:01.027Z,4.20
2022-12-31T11:27:57.484Z,2.10
2022-12-31T11:30:30.368Z,4.65
2022-12-31T11:33:29.508Z,2.88
2022-12-31T11:36:00.746Z,5.32
2022-12-31T11:38:45.385Z,8.20
2022-12-31T11:41:39.998Z,6.97
2022-12-31T11:44:19.384Z,1.97
2022-12-31T11:46:46.183Z,5.57
2022-12-31T11:49:54.791Z,5.10
2022-12-31T11:53:09.029Z,1.85
2022-12-31T11:56:00.560Z,4.15
2022-12-31T11:58:28.959Z,4.97
2022-12-31T12:01:17.688Z,6.63
2022-12-31T12:03:45.571Z,3.65
2022-12-31T12:06:15.422Z,5.65
2022-12-31T12:08:43.924Z,8.40
2022-12-31T12:11:30.443Z,7.22
2022-12-31T12:13:57.310Z,5.40
2022-12-31T12:16:26.485Z,5.18
2022-12-31T12:19:04.796Z,4.70
2022-12-31T12:21:31.902Z,4.47
2022-12-31T12:24:02.016Z,2.60
2022-12-31T12:26:41.675Z,5.35
2022-12-31T12:29:17.037Z,5.47
2022-12-31T12:32:05.639Z,5.32
2022-12-31T12:34:39.449Z,3.72
2022-12-31T12:37:36.300Z,7.45
2022-12-31T12:40:29.834Z,4.38
2022-12-31T12:42:58.617Z,2.45
2022-12-31T12:45:42.005Z,4.00
2022-12-31T12:48:19.672Z,6.20
2022-12-31T12:50:49.065Z,9.20
2022-12-31T12:53:50.725Z,25.38
2022-12-31T12:56:22.903Z,4.72
2022-12-31T12:59:34.089Z,8.95
2022-12-31T13:02:06.986Z,5.45
2022-12-31T13:04:56.268Z,4.75
2022-12-31T13:07:45.847Z,3.63
2022-12-31T13:10:21.604Z,6.57
2022-12-31T13:13:23.439Z,2.80
2022-12-31T13:16:19.249Z,4.43
2022-12-31T13:19:02.704Z,5.80
2022-12-31T13:21:50.757Z,9.95
2022-12-31T13:24:47.574Z,3.78
2022-12-31T13:27:27.250Z,5.20
2022-12-31T13:29:57.822Z,3.42
2022-12-31T13:32:38.882Z,4.20
2022-12-31T13:35:29.342Z,6.35
2022-12-31T13:38:12.547Z,6.57
2022-12-31T13:40:55.134Z,3.70
2022-12-31T13:43:51.126Z,6.55
2022-12-31T13:46:36.220Z,2.35
2022-12-31T13:49:12.740Z,2.15
2022-12-31T13:51:42.348Z,5.03
2022-12-31T13:54:43.796Z,3.10
2022-12-31T13:57:35.938Z,2.83
2022-12-31T14:00:17.228Z,7.50
2022-12-31T14:03:01.483Z,2.33
2022-12-31T14:05:58.839Z,6.83
2022-12-31T14:08:25.465Z,2.10
2022-12-31T14:11:19.038Z,8.65
2022-12-31T14:13:57.748Z,12.10
2022-12-31T14:16:27.661Z,7.10
2022-12-31T14:19:35.360Z,9.98
2022-12-31T14:22:20.449Z,5.90
2022-12-31T14:24:52.078Z,5.47
2022-12-31T14:27:39.385Z,8.57
2022-12-31T14:30:19.612Z,3.83
2022-12-31T14:33:33.676Z,6.85
2022-12-31T14:36:19.523Z,10.30
2022-12-31T14:38:59.702Z,5.22
2022-12-31T14:41:47.752Z,5.47
2022-12-31T14:44:45.739Z,7.53
2022-12-31T14:47:47.033Z,10.15
2022-12-31T14:50:28.581Z,8.82
2022-12-31T14:52:59.658Z,9.75
2022-12-31T14:55:28.423Z,12.13
2022-12-31T15:00:57.315Z,5.45
2022-12-31T15:03:31.736Z,11.00
2022-12-31T15:06:23.311Z,15.80
2022-12-31T15:09:08.199Z,8.98
2022-12-31T15:12:05.156Z,12.32
2022-12-31T15:15:04.786Z,10.23
2022-12-31T15:18:07.859Z,6.78
2022-12-31T15:20:58.920Z,12.95
2022-12-31T15:23:35.219Z,16.33
2022-12-31T15:26:03.441Z,10.50
2022-12-31T15:28:39.617Z,9.27
2022-12-31T15:31:17.488Z,9.57
2022-12-31T15:34:01.255Z,13.95
2022-12-31T15:36:35.425Z,9.50
2022-12-31T15:39:12.483Z,10.18
2022-12-31T15:42:10.318Z,16.13
2022-12-31T15:44:43.660Z,5.97
2022-12-31T15:47:31.337Z,9.95
2022-12-31T15:50:02.527Z,16.42
2022-12-31T15:52:55.175Z,13.93
2022-12-31T15:55:34.262Z,13.77
2022-12-31T15:58:06.155Z,13.50
2022-12-31T16:01:03.701Z,6.72
2022-12-31T16:03:31.846Z,14.95
2022-12-31T16:06:13.571Z,11.35
2022-12-31T16:08:44.930Z,6.35
2022-12-31T16:11:11.898Z,10.05
2022-12-31T16:13:45.594Z,7.47
2022-12-31T16:16:24.786Z,7.93
2022-12-31T16:18:52.990Z,6.38
2022-12-31T16:21:34.842Z,6.53
2022-12-31T16:24:06.511Z,12.35
2022-12-31T16:26:49.639Z,12.40
2022-12-31T16:29:18.898Z,8.80
2022-12-31T16:31:46.913Z,6.15
2022-12-31T16:34:17.450Z,13.40
2022-12-31T16:37:05.307Z,10.80
2022-12-31T16:39:34.510Z,10.50
2022-12-31T16:42:13.431Z,13.77
2022-12-31T16:44:41.113Z,9.90
2022-12-31T16:47:14.301Z,17.98
2022-12-31T16:49:42.717Z,5.55
2022-12-31T16:52:27.333Z,8.60
2022-12-31T16:54:55.510Z,9.05
2022-12-31T16:57:25.624Z,9.98
2022-12-31T16:59:57.926Z,10.05
2022-12-31T17:02:34.701Z,4.82
2022-12-31T17:05:01.754Z,4.60
2022-12-31T17:07:31.493Z,8.93
2022-12-31T17:10:07.270Z,9.43
2022-12-31T17:12:52.999Z,7.65
2022-12-31T17:15:27.919Z,3.40
2022-12-31T17:17:58.071Z,9.20
2022-12-31T17:20:28.173Z,8.23
2022-12-31T17:22:59.049Z,6.10
2022-12-31T17:25:30.988Z,9.10
2022-12-31T17:28:07.012Z,9.43
2022-12-31T17:30:34.563Z,10.80
2022-12-31T17:33:11.596Z,16.40
2022-12-31T17:35:42.343Z,8.20
2022-12-31T17:38:18.205Z,7.88
2022-12-31T17:40:51.371Z,10.45
2022-12-31T17:43:21.332Z,10.97
2022-12-31T17:45:50.335Z,9.98
2022-12-31T17:48:19.618Z,11.02
2022-12-31T17:50:54.897Z,8.27
2022-12-31T17:53:21.763Z,9.77
2022-12-31T17:55:51.107Z,9.02
2022-12-31T17:58:22.477Z,8.65
2022-12-31T18:00:54.120Z,5.18
2022-12-31T18:03:20.939Z,4.65
2022-12-31T18:05:47.726Z,6.85
2022-12-31T18:08:14.587Z,9.55
2022-12-31T18:10:43.188Z,10.23
2022-12-31T18:13:24.495Z,11.55
2022-12-31T18:15:52.695Z,5.43
2022-12-31T18:18:27.931Z,9.63
2022-12-31T18:21:03.623Z,8.23
2022-12-31T18:26:24.526Z,8.73
2022-12-31T18:28:52.016Z,10.63
2022-12-31T18:31:24.751Z,4.13
2022-12-31T18:33:52.803Z,6.05
2022-12-31T18:36:21.491Z,2.65
2022-12-31T18:38:48.677Z,9.02
2022-12-31T18:41:21.541Z,8.40
2022-12-31T18:43:49.065Z,11.05
2022-12-31T18:46:22.454Z,9.90
2022-12-31T18:48:49.528Z,5.25
2022-12-31T18:51:19.019Z,10.15
2022-12-31T18:53:45.994Z,9.25
2022-12-31T18:56:15.769Z,3.55
2022-12-31T18:58:43.124Z,8.77
2022-12-31T19:01:35.454Z,14.27
2022-12-31T19:04:14.308Z,14.77
2022-12-31T19:06:41.371Z,11.13
2022-12-31T19:09:30.406Z,2.97
2022-12-31T19:11:55.105Z,7.93
2022-12-31T19:14:24.260Z,7.70
2022-12-31T19:16:53.301Z,8.10
2022-12-31T19:19:20.879Z,12.02
2022-12-31T19:21:47.868Z,9.57
2022-12-31T19:24:26.605Z,6.78
2022-12-31T19:26:54.294Z,13.60
2022-12-31T19:29:28.279Z,11.48
2022-12-31T19:31:55.109Z,11.10
2022-12-31T19:34:22.069Z,3.30
2022-12-31T19:36:48.776Z,12.35
2022-12-31T19:39:20.649Z,11.63
2022-12-31T19:41:53.009Z,6.28
2022-12-31T19:44:25.341Z,3.30
2022-12-31T19:46:52.129Z,10.80
2022-12-31T19:49:18.779Z,19.42
2022-12-31T19:51:45.418Z,8.10
2022-12-31T19:54:15.351Z,7.60
2022-12-31T19:56:42.175Z,14.82
2022-12-31T19:59:10.139Z,13.98
2022-12-31T20:01:37.369Z,8.20
2022-12-31T20:04:04.571Z,24.73
2022-12-31T20:06:31.327Z,10.48
2022-12-31T20:08:58.033Z,11.63
2022-12-31T20:11:24.767Z,6.35
2022-12-31T20:13:53.565Z,17.63
2022-12-31T20:16:23.404Z,12.25
2022-12-31T20:18:50.501Z,13.98
2022-12-31T20:21:20.029Z,6.03
2022-12-31T20:23:48.333Z,6.75
2022-12-31T20:26:14.987Z,10.15
2022-12-31T20:28:41.611Z,11.25
2022-12-31T20:31:14.154Z,9.57
2022-12-31T20:33:41.591Z,4.18
2022-12-31T20:36:11.463Z,18.90
2022-12-31T20:38:38.251Z,12.00
2022-12-31T20:41:14.436Z,15.45
2022-12-31T20:43:41.833Z,8.30
2022-12-31T20:46:15.243Z,12.30
2022-12-31T20:48:43.557Z,15.40
2022-12-31T20:51:10.529Z,14.02
2022-12-31T20:53:37.206Z,11.25
2022-12-31T20:56:08.467Z,11.65
2022-12-31T20:58:35.483Z,16.77
2022-12-31T21:01:06.978Z,10.88
2022-12-31T21:06:22.837Z,5.28
2022-12-31T21:08:49.647Z,11.88
2022-12-31T21:11:35.207Z,10.80
2022-12-31T21:14:02.319Z,5.72
2022-12-31T21:16:29.320Z,14.05
2022-12-31T21:18:56.106Z,10.88
2022-12-31T21:21:23.491Z,12.45
2022-12-31T21:23:50.472Z,5.50
2022-12-31T21:26:17.422Z,6.70
2022-12-31T21:28:44.168Z,14.27
2022-12-31T21:31:13.177Z,12.35
2022-12-31T21:33:39.827Z,5.97
2022-12-31T21:36:06.725Z,18.05
2022-12-31T21:38:36.747Z,12.18
2022-12-31T21:41:04.846Z,11.13
2022-12-31T21:43:31.689Z,9.43
2022-12-31T21:46:03.770Z,6.03
2022-12-31T21:48:30.560Z,10.73
2022-12-31T21:51:13.293Z,13.00
2022-12-31T21:53:40.484Z,10.30
2022-12-31T21:56:09.091Z,8.98
2022-12-31T21:58:37.743Z,10.93
2022-12-31T22:01:24.109Z,7.22
2022-12-31T22:03:51.172Z,9.65
2022-12-31T22:06:23.078Z,10.00
2022-12-31T22:08:54.821Z,7.53
2022-12-31T22:11:24.234Z,12.25
2022-12-31T22:13:51.779Z,7.15
2022-12-31T22:16:20.261Z,5.07
2022-12-31T22:18:47.695Z,7.05
2022-12-31T22:21:19.515Z,6.55
2022-12-31T22:23:49.343Z,8.43
2022-12-31T22:26:18.125Z,4.38
2022-12-31T22:28:46.075Z,11.63
2022-12-31T22:31:15.355Z,4.75
2022-12-31T22:33:43.123Z,11.52
2022-12-31T22:36:15.767Z,11.77
2022-12-31T22:38:42.841Z,8.20
2022-12-31T22:41:21.191Z,6.25
2022-12-31T22:43:50.377Z,10.45
2022-12-31T22:46:23.192Z,8.57
2022-12-31T22:48:51.580Z,5.68
2022-12-31T22:51:19.437Z,7.60
2022-12-31T22:53:46.804Z,13.10
2022-12-31T22:56:15.872Z,15.88
2022-12-31T22:58:43.001Z,8.45
2022-12-31T23:01:18.248Z,11.43
2022-12-31T23:03:46.656Z,13.05
2022-12-31T23:06:13.421Z,15.73
2022-12-31T23:08:40.441Z,10.75
2022-12-31T23:11:09.500Z,8.40
2022-12-31T23:14:00.018Z,12.90
2022-12-31T23:16:48.048Z,10.73
2022-12-31T23:19:34.456Z,7.85
2022-12-31T23:22:19.720Z,6.85
2022-12-31T23:24:46.399Z,8.95
2022-12-31T23:27:13.157Z,15.15
2022-12-31T23:29:46.156Z,12.75
2022-12-31T23:32:15.859Z,19.63
2022-12-31T23:34:44.576Z,8.88
2022-12-31T23:37:15.215Z,18.20
2022-12-31T23:39:42.452Z,13.57
2022-12-31T23:42:09.359Z,11.15
2022-12-31T23:44:36.156Z,10.95
2022-12-31T23:47:02.956Z,6.00
2022-12-31T23:49:30.060Z,17.60
2022-12-31T23:51:56.685Z,13.55
2022-12-31T23:54:23.384Z,11.82
2022-12-31T23:56:50.090Z,10.27
2022-12-31T23:59:18.413Z,9.48
